Time;durP1;ratioP1;P1;durP2;ratioP2;P2;SDS_P1;SDS_P2;PMS_P1;PMS_P2;Temp;Humidity;BMP_temperature;BMP_pressure;BME280_temperature;BME280_humidity;BME280_pressure;Samples;Min_cycle;Max_cycle;Signal;HPM_P1;HPM_P2
2022/06/21 00:02:22;;;;;;;;;12.00;11.00;;;;;19.87;100.00;99743.78;6179534;23;48048;-94
2022/06/21 00:04:47;;;;;;;;;11.00;11.00;;;;;19.87;100.00;99750.88;6163625;23;45331;-96
2022/06/21 00:07:24;;;;;;;;;15.33;14.00;;;;;19.83;100.00;99747.41;6163459;23;45459;-96
2022/06/21 00:09:50;;;;;;;;;12.33;9.00;;;;;19.71;100.00;99727.09;6161152;23;45341;-96
2022/06/21 00:12:17;;;;;;;;;12.67;11.00;;;;;19.64;100.00;99714.72;6156087;23;47508;-95
2022/06/21 00:14:43;;;;;;;;;11.33;11.00;;;;;19.62;100.00;99701.44;6153663;23;45343;-95
2022/06/21 00:17:27;;;;;;;;;10.00;10.00;;;;;19.60;100.00;99692.59;6154845;23;45717;-95
2022/06/21 00:19:53;;;;;;;;;10.00;10.00;;;;;19.59;100.00;99695.25;6152687;23;45484;-96
2022/06/21 00:22:22;;;;;;;;;8.67;8.67;;;;;19.64;100.00;99704.97;6154161;23;47076;-96
2022/06/21 00:24:51;;;;;;;;;10.67;8.00;;;;;19.55;100.00;99691.75;6155010;23;45477;-95
2022/06/21 00:27:29;;;;;;;;;10.00;9.00;;;;;19.54;100.00;99689.97;6154516;23;45174;-96
2022/06/21 00:29:55;;;;;;;;;11.00;8.67;;;;;19.49;100.00;99694.44;6154571;23;45489;-95
2022/06/21 00:32:20;;;;;;;;;9.00;9.00;;;;;19.49;100.00;99705.97;6161151;23;46632;-96
2022/06/21 00:34:47;;;;;;;;;6.33;5.33;;;;;19.51;100.00;99709.50;6164020;23;45320;-96
2022/06/21 00:37:21;;;;;;;;;10.00;9.00;;;;;19.47;100.00;99691.81;6164166;23;45310;-96
2022/06/21 00:39:47;;;;;;;;;8.00;8.00;;;;;19.51;100.00;99713.94;6183099;23;45328;-96
2022/06/21 00:42:30;;;;;;;;;8.00;8.00;;;;;19.48;100.00;99712.19;6156021;23;47435;-96
2022/06/21 00:45:11;;;;;;;;;9.00;9.00;;;;;19.45;100.00;99719.31;6155026;23;45379;-96
2022/06/21 00:47:54;;;;;;;;;8.00;8.00;;;;;19.34;100.00;99703.44;6155073;23;45403;-96
2022/06/21 00:50:36;;;;;;;;;7.00;7.00;;;;;19.34;100.00;99704.31;6155311;23;45262;-96
2022/06/21 00:53:06;;;;;;;;;9.00;7.33;;;;;19.25;100.00;99677.81;6180129;23;47194;-96
2022/06/21 00:55:56;;;;;;;;;9.00;8.00;;;;;19.34;100.00;99695.47;6154779;23;45584;-96
2022/06/21 00:58:30;;;;;;;;;8.67;7.00;;;;;19.28;100.00;99693.72;6154863;23;45410;-96
2022/06/21 01:01:22;;;;;;;;;8.33;7.00;;;;;19.28;100.00;99707.91;6180164;23;45497;-96
2022/06/21 01:04:07;;;;;;;;;5.67;5.67;;;;;19.25;100.00;99729.22;6163445;23;47388;-96
2022/06/21 01:06:38;;;;;;;;;6.33;6.33;;;;;19.20;100.00;99720.38;6162713;23;45403;-96
2022/06/21 01:09:11;;;;;;;;;7.33;6.00;;;;;19.19;100.00;99719.53;6158175;23;45501;-96
2022/06/21 01:11:49;;;;;;;;;7.00;6.00;;;;;19.23;100.00;99724.78;6156435;23;45499;-96
2022/06/21 01:14:18;;;;;;;;;5.00;5.00;;;;;19.14;100.00;99709.75;6155374;23;48561;-96
2022/06/21 01:16:43;;;;;;;;;6.00;6.00;;;;;19.08;100.00;99702.69;6181019;23;45280;-96
2022/06/21 01:19:26;;;;;;;;;7.67;7.00;;;;;19.13;100.00;99705.31;6155637;23;45506;-96
2022/06/21 01:22:00;;;;;;;;;7.33;7.33;;;;;19.19;100.00;99708.88;6155532;23;45293;-96
2022/06/21 01:24:43;;;;;;;;;5.67;5.67;;;;;19.14;100.00;99702.69;6154307;23;47048;-96
2022/06/21 01:27:08;;;;;;;;;6.67;6.00;;;;;19.15;100.00;99703.53;6155528;23;45583;-96
2022/06/21 01:29:38;;;;;;;;;7.67;6.67;;;;;19.28;100.00;99722.97;6186227;23;45102;-96
2022/06/21 01:32:06;;;;;;;;;8.33;6.00;;;;;19.16;100.00;99700.88;6163897;23;45495;-96
2022/06/21 01:34:32;;;;;;;;;5.00;5.00;;;;;19.23;100.00;99703.50;6162110;23;46829;-96
2022/06/21 01:37:08;;;;;;;;;7.00;6.00;;;;;19.18;100.00;99695.56;6156694;23;45362;-96
2022/06/21 01:39:41;;;;;;;;;8.33;7.00;;;;;19.24;100.00;99719.47;6125828;23;45269;-96
2022/06/21 01:42:12;;;;;;;;;8.67;6.67;;;;;19.21;100.00;99719.50;6124844;23;45412;-96
2022/06/21 01:44:43;;;;;;;;;6.00;6.00;;;;;19.18;100.00;99716.84;6125373;23;47307;-96
2022/06/21 01:47:14;;;;;;;;;7.67;7.67;;;;;19.08;100.00;99711.56;6123648;23;45505;-96
2022/06/21 01:49:47;;;;;;;;;6.67;5.33;;;;;19.16;100.00;99740.78;6125922;23;45455;-96
2022/06/21 01:52:17;;;;;;;;;7.00;7.00;;;;;19.08;100.00;99729.31;6126403;23;45220;-96
2022/06/21 01:54:49;;;;;;;;;7.00;7.00;;;;;19.14;100.00;99745.22;6125445;23;48400;-96
2022/06/21 01:57:14;;;;;;;;;7.00;7.00;;;;;19.13;100.00;99746.13;6125840;23;45433;-96
2022/06/21 01:59:45;;;;;;;;;12.67;8.00;;;;;19.19;100.00;99769.16;6126101;23;45376;-96
2022/06/21 02:02:20;;;;;;;;;6.00;6.00;;;;;19.08;100.00;99772.75;6135846;23;45456;-96
2022/06/21 02:05:01;;;;;;;;;8.00;7.00;;;;;19.12;100.00;99792.19;6136833;23;46999;-96
2022/06/21 02:07:33;;;;;;;;;7.00;6.00;;;;;19.24;100.00;99817.00;6135173;23;45818;-96
2022/06/21 02:10:11;;;;;;;;;9.33;8.00;;;;;19.30;100.00;99824.97;6128401;23;45319;-96
2022/06/21 02:12:43;;;;;;;;;5.33;4.67;;;;;19.18;100.00;99776.25;6126882;23;45376;-96
2022/06/21 02:15:19;;;;;;;;;7.67;6.00;;;;;19.23;100.00;99792.19;6125379;23;46774;-95
2022/06/21 02:17:48;;;;;;;;;4.67;4.00;;;;;19.18;100.00;99784.25;6125840;23;46036;-96
2022/06/21 02:20:33;;;;;;;;;6.00;6.00;;;;;19.18;100.00;99786.00;6128863;23;45254;-96
2022/06/21 02:22:59;;;;;;;;;5.00;5.00;;;;;19.29;100.00;99775.31;6129618;23;45452;-96
2022/06/21 02:25:26;;;;;;;;;9.67;7.67;;;;;19.26;100.00;99764.69;6128125;23;48304;-96
2022/06/21 02:27:56;;;;;;;;;9.67;8.33;;;;;19.18;100.00;99747.00;6128107;23;45336;-95
2022/06/21 02:30:28;;;;;;;;;8.00;6.33;;;;;19.27;100.00;99761.13;6125629;23;45392;-95
2022/06/21 02:32:58;;;;;;;;;7.00;4.33;;;;;19.24;100.00;99737.22;6126195;23;45496;-96
2022/06/21 02:35:37;;;;;;;;;9.00;7.33;;;;;19.28;100.00;99734.50;6131505;23;47560;-95
2022/06/21 02:38:14;;;;;;;;;5.33;5.33;;;;;19.19;100.00;99714.19;6134727;23;45776;-96
2022/06/21 02:40:45;;;;;;;;;8.33;6.67;;;;;19.22;100.00;99699.09;6134348;23;45292;-96
2022/06/21 02:43:23;;;;;;;;;6.00;6.00;;;;;19.25;100.00;99696.44;6130196;23;45252;-96
2022/06/21 02:46:02;;;;;;;;;7.00;7.00;;;;;19.18;100.00;99682.28;6127065;23;47314;-96
2022/06/21 02:48:36;;;;;;;;;6.67;6.67;;;;;19.16;100.00;99676.06;6129290;23;45401;-96
2022/06/21 02:51:11;;;;;;;;;9.67;8.67;;;;;19.14;100.00;99673.41;6129872;23;45431;-96
2022/06/21 02:53:48;;;;;;;;;8.67;6.67;;;;;19.15;100.00;99682.25;6129661;23;45395;-96
2022/06/21 02:56:26;;;;;;;;;7.00;7.00;;;;;19.16;100.00;99671.63;6128366;23;48097;-96
2022/06/21 02:58:58;;;;;;;;;9.33;7.00;;;;;19.13;100.00;99668.09;6128965;23;45344;-96
2022/06/21 03:01:29;;;;;;;;;6.33;6.33;;;;;19.14;100.00;99673.41;6127546;23;45415;-96
2022/06/21 03:03:57;;;;;;;;;8.67;8.00;;;;;19.20;100.00;99691.13;6126908;23;45315;-96
2022/06/21 03:06:23;;;;;;;;;7.00;7.00;;;;;19.14;100.00;99686.72;6128458;23;47238;-96
2022/06/21 03:09:02;;;;;;;;;7.33;7.33;;;;;19.04;100.00;99663.75;6130037;23;45295;-96
2022/06/21 03:11:52;;;;;;;;;7.33;7.33;;;;;19.04;100.00;99663.75;6137624;23;45300;-96
2022/06/21 03:14:24;;;;;;;;;6.00;6.00;;;;;19.14;100.00;99678.75;6136190;23;44828;-96
2022/06/21 03:16:52;;;;;;;;;9.67;7.00;;;;;19.06;100.00;99661.94;6134264;23;47187;-96
2022/06/21 03:19:32;;;;;;;;;8.00;7.33;;;;;18.92;100.00;99639.00;6154548;23;45290;-96
2022/06/21 03:21:58;;;;;;;;;6.00;5.67;;;;;19.01;100.00;99642.47;6127827;23;45217;-96
2022/06/21 03:24:26;;;;;;;;;7.00;5.33;;;;;18.87;100.00;99627.50;6127286;23;45356;-96
2022/06/21 03:27:03;;;;;;;;;7.67;6.67;;;;;18.87;100.00;99619.53;6126126;23;46232;-96
2022/06/21 03:29:45;;;;;;;;;7.67;7.67;;;;;18.84;100.00;99612.47;6126219;23;45965;-96
2022/06/21 03:32:11;;;;;;;;;10.33;7.33;;;;;18.93;100.00;99627.47;6129908;23;45802;-96
2022/06/21 03:34:40;;;;;;;;;8.00;6.00;;;;;18.87;100.00;99606.25;6127828;23;45459;-96
2022/06/21 03:37:05;;;;;;;;;8.33;7.67;;;;;18.71;100.00;99576.25;6125802;23;48038;-96
2022/06/21 03:42:18;;;;;;;;;7.00;7.00;;;;;18.67;100.00;99567.41;6152984;23;45213;-96
2022/06/21 03:44:54;;;;;;;;;10.00;9.00;;;;;18.79;100.00;99586.78;6126570;23;45410;-96
2022/06/21 03:47:25;;;;;;;;;8.67;8.67;;;;;18.61;100.00;99548.84;6133737;23;48096;-96
2022/06/21 03:50:01;;;;;;;;;10.67;9.00;;;;;18.74;100.00;99568.22;6135170;23;45294;-96
2022/06/21 03:52:43;;;;;;;;;5.33;5.33;;;;;18.67;100.00;99555.88;6134932;23;45134;-96
2022/06/21 03:55:34;;;;;;;;;7.33;6.00;;;;;18.59;100.00;99537.34;6128125;23;45503;-96
2022/06/21 03:58:03;;;;;;;;;10.00;9.00;;;;;18.50;100.00;99527.69;6127309;23;47356;-96
2022/06/21 04:00:35;;;;;;;;;6.33;5.67;;;;;18.46;100.00;99525.91;6126260;23;45344;-96
2022/06/21 04:03:24;;;;;;;;;8.33;6.67;;;;;18.47;100.00;99525.91;6127961;23;45380;-96
2022/06/21 04:06:04;;;;;;;;;7.67;6.67;;;;;18.44;100.00;99512.66;6126883;23;45272;-96
2022/06/21 04:08:46;;;;;;;;;7.00;7.00;;;;;18.41;100.00;99512.66;6126106;23;47173;-96
2022/06/21 04:11:38;;;;;;;;;9.00;9.00;;;;;18.48;100.00;99510.84;6128878;23;45418;-96
2022/06/21 04:14:13;;;;;;;;;13.00;9.67;;;;;18.47;100.00;99506.44;6136219;23;44859;-96
2022/06/21 04:16:57;;;;;;;;;8.00;8.00;;;;;18.41;100.00;99497.63;6136803;23;45283;-96
2022/06/21 06:24:29;;;;;;;;;8.33;8.33;;;;;18.98;100.00;99433.34;6142973;22;46138;-95
2022/06/21 06:26:59;;;;;;;;;11.00;10.00;;;;;19.05;100.00;99426.16;6155108;22;45477;-93
2022/06/21 06:29:40;;;;;;;;;10.00;10.00;;;;;19.26;100.00;99422.41;6157736;23;45628;-95
2022/06/21 06:32:16;;;;;;;;;10.33;10.00;;;;;19.32;100.00;99432.09;6158376;23;45390;-96
2022/06/21 06:34:46;;;;;;;;;11.67;9.00;;;;;19.50;100.00;99446.06;6151681;23;46482;-95
2022/06/21 06:37:30;;;;;;;;;13.67;11.00;;;;;19.76;100.00;99461.72;6178596;23;44855;-96
2022/06/21 06:39:56;;;;;;;;;11.00;8.00;;;;;19.84;100.00;99460.72;6153587;23;45422;-95
2022/06/21 06:42:25;;;;;;;;;9.00;8.00;;;;;19.95;100.00;99484.53;6154510;23;45451;-95
2022/06/21 06:45:00;;;;;;;;;11.33;11.33;;;;;20.03;100.00;99492.41;6157635;23;46128;-96
2022/06/21 06:47:34;;;;;;;;;11.00;9.33;;;;;20.10;100.00;99499.44;6152323;23;45287;-88
2022/06/21 06:50:12;;;;;;;;;16.67;10.67;;;;;20.17;100.00;99495.81;6171591;23;45348;-87
2022/06/21 06:52:48;;;;;;;;;9.00;9.00;;;;;20.27;100.00;99508.97;6152401;23;45350;-85
2022/06/21 06:55:46;;;;;;;;;14.33;12.00;;;;;20.43;100.00;99512.28;6172914;23;47068;-86
2022/06/21 06:58:23;;;;;;;;;11.33;10.00;;;;;20.52;100.00;99527.25;6171829;23;45844;-87
2022/06/21 07:00:54;;;;;;;;;9.00;6.33;;;;;20.62;100.00;99507.53;6148606;23;45416;-87
2022/06/21 07:03:31;;;;;;;;;9.33;9.33;;;;;20.78;100.00;99517.94;6149067;23;45260;-88
2022/06/21 07:06:06;;;;;;;;;11.33;11.33;;;;;20.90;100.00;99516.84;6171100;23;47978;-87
2022/06/21 07:09:00;;;;;;;;;9.67;9.00;;;;;21.01;100.00;99518.44;6145816;23;45291;-87
2022/06/21 07:11:29;;;;;;;;;10.00;10.00;;;;;21.05;100.00;99515.75;6142276;23;45577;-86
2022/06/21 07:13:56;;;;;;;;;11.00;11.00;;;;;20.96;100.00;99523.88;6170666;23;45676;-86
2022/06/21 07:16:24;;;;;;;;;11.00;11.00;;;;;20.93;100.00;99546.13;6147967;23;45981;-86
2022/06/21 07:18:53;;;;;;;;;10.67;10.00;;;;;20.96;100.00;99548.75;6142878;23;45394;-87
2022/06/21 07:21:20;;;;;;;;;10.67;10.67;;;;;21.03;100.00;99551.38;6170320;23;45469;-88
2022/06/21 07:23:46;;;;;;;;;13.67;12.33;;;;;21.16;100.00;99560.00;6149176;23;45193;-87
2022/06/21 07:26:21;;;;;;;;;12.00;10.00;;;;;21.21;100.00;99542.13;6167203;23;46050;-96
2022/06/21 07:29:07;;;;;;;;;11.33;11.33;;;;;21.28;100.00;99557.16;6186626;23;45443;-95
2022/06/21 07:31:51;;;;;;;;;11.33;11.00;;;;;21.30;100.00;99560.66;6191778;23;45535;-96
2022/06/21 07:34:27;;;;;;;;;12.67;11.00;;;;;21.37;100.00;99555.19;6185666;23;45206;-95
2022/06/21 07:37:05;;;;;;;;;12.67;12.33;;;;;21.48;100.00;99558.56;6177574;23;46849;-93
2022/06/21 07:39:52;;;;;;;;;12.67;12.33;;;;;21.61;100.00;99558.31;6180020;23;45312;-93
2022/06/21 07:42:32;;;;;;;;;11.67;11.00;;;;;21.74;100.00;99534.91;6179244;23;45339;-94
2022/06/21 07:45:05;;;;;;;;;15.67;12.67;;;;;21.80;100.00;99528.56;6174977;23;45361;-91
2022/06/21 07:47:39;;;;;;;;;14.67;12.00;;;;;21.91;100.00;99521.22;6177215;23;45324;-92
2022/06/21 07:50:15;;;;;;;;;11.67;10.00;;;;;22.05;100.00;99536.97;6176404;23;45788;-92
2022/06/21 07:52:50;;;;;;;;;17.67;14.00;;;;;22.24;100.00;99552.56;6151598;23;45655;-94
2022/06/21 07:55:29;;;;;;;;;15.33;13.00;;;;;22.45;100.00;99553.00;6178567;23;45353;-92
2022/06/21 07:58:02;;;;;;;;;13.67;13.67;;;;;22.61;100.00;99545.50;6177542;23;45349;-94
2022/06/21 08:06:41;;;;;;;;;13.67;11.33;;;;;22.83;100.00;99549.47;6180366;23;45265;-94
2022/06/21 08:09:20;;;;;;;;;12.00;12.00;;;;;23.54;100.00;99578.00;6184263;23;45395;-93
2022/06/21 08:11:47;;;;;;;;;11.00;10.00;;;;;23.50;100.00;99563.81;6174259;23;45471;-93
2022/06/21 08:14:15;;;;;;;;;10.67;10.67;;;;;23.49;100.00;99571.84;6173684;23;45590;-95
2022/06/21 08:16:56;;;;;;;;;12.33;11.33;;;;;23.36;100.00;99585.59;6150682;23;45491;-89
2022/06/21 08:19:27;;;;;;;;;12.67;11.33;;;;;23.38;100.00;99583.75;6177836;23;48429;-90
2022/06/21 08:22:01;;;;;;;;;12.00;11.67;;;;;23.56;100.00;99584.19;6174504;23;45623;-88
2022/06/21 08:24:32;;;;;;;;;12.33;12.00;;;;;23.79;100.00;99582.66;6146498;23;45871;-89
2022/06/21 08:27:17;;;;;;;;;13.00;9.33;;;;;23.94;100.00;99584.00;6174285;23;45476;-87
2022/06/21 08:29:57;;;;;;;;;12.33;12.00;;;;;24.16;100.00;99594.13;6172944;23;47798;-86
2022/06/21 08:32:33;;;;;;;;;12.00;12.00;;;;;24.34;100.00;99597.19;6149607;23;45479;-84
2022/06/21 08:35:31;;;;;;;;;13.00;13.00;;;;;24.52;100.00;99593.06;6150457;23;45669;-85
2022/06/21 08:38:13;;;;;;;;;14.00;11.67;;;;;24.75;100.00;99591.44;6160375;23;45475;-86
2022/06/21 08:41:01;;;;;;;;;14.00;13.00;;;;;24.95;100.00;99608.69;6175124;23;46055;-87
2022/06/21 08:43:27;;;;;;;;;12.00;12.00;;;;;25.20;100.00;99604.34;6058473;23;45488;-90
2022/06/21 08:46:01;;;;;;;;;18.00;13.00;;;;;25.58;100.00;99611.09;6084938;23;45403;-89
2022/06/21 08:48:57;;;;;;;;;12.67;12.33;;;;;25.89;100.00;99621.66;6085411;23;45920;-87
2022/06/21 08:52:00;;;;;;;;;12.33;11.33;;;;;25.92;100.00;99626.03;6083718;23;47500;-87
2022/06/21 08:54:47;;;;;;;;;12.67;12.33;;;;;25.87;100.00;99631.56;6084094;23;45426;-91
2022/06/21 08:57:12;;;;;;;;;13.33;12.00;;;;;25.77;100.00;99643.59;6084862;23;45878;-85
2022/06/21 08:59:45;;;;;;;;;13.00;13.00;;;;;25.66;100.00;99630.53;6084418;23;45883;-86
2022/06/21 09:02:29;;;;;;;;;14.00;13.00;;;;;25.64;100.00;99619.81;6083914;23;48054;-85
2022/06/21 09:05:13;;;;;;;;;13.33;10.67;;;;;25.63;100.00;99618.06;6084272;23;45542;-93
2022/06/21 09:08:16;;;;;;;;;14.33;14.00;;;;;25.62;100.00;99623.47;6087252;23;45260;-92
2022/06/21 09:10:57;;;;;;;;;14.00;12.00;;;;;25.50;100.00;99614.94;6087748;23;45397;-91
2022/06/21 09:13:28;;;;;;;;;12.33;12.33;;;;;25.41;100.00;99615.28;6084139;23;47109;-92
2022/06/21 09:16:12;;;;;;;;;14.00;11.67;;;;;25.41;100.00;99624.19;6084981;23;45800;-92
2022/06/21 09:18:56;;;;;;;;;14.67;13.33;;;;;25.45;100.00;99630.34;6084961;23;45420;-89
2022/06/21 09:21:36;;;;;;;;;11.33;11.33;;;;;25.51;100.00;99626.56;6159274;23;45457;-90
2022/06/21 09:24:23;;;;;;;;;13.33;13.33;;;;;25.66;100.00;99631.41;6177163;23;45438;-90
2022/06/21 09:27:23;;;;;;;;;15.33;13.33;;;;;26.00;100.00;99613.16;6176166;23;45743;-90
2022/06/21 09:30:13;;;;;;;;;16.00;14.67;;;;;26.38;100.00;99608.19;6175442;23;45508;-92
2022/06/21 09:33:07;;;;;;;;;14.67;14.00;;;;;26.59;100.00;99632.53;6177335;23;45297;-92
2022/06/21 09:35:54;;;;;;;;;13.00;11.00;;;;;26.69;100.00;99638.44;6149504;23;47078;-93
2022/06/21 09:38:47;;;;;;;;;12.00;11.67;;;;;26.82;100.00;99642.38;6175424;23;45351;-94
2022/06/21 09:41:36;;;;;;;;;13.00;12.00;;;;;27.28;100.00;99629.78;6175732;23;45296;-89
2022/06/21 09:44:13;;;;;;;;;12.00;11.00;;;;;27.86;100.00;99625.47;6177042;23;45427;-93
2022/06/21 09:46:47;;;;;;;;;15.00;13.67;;;;;28.24;100.00;99637.28;6179342;23;46302;-94
2022/06/21 09:49:36;;;;;;;;;15.00;12.33;;;;;28.49;100.00;99654.16;6175604;23;45385;-91
2022/06/21 09:52:19;;;;;;;;;16.00;14.67;;;;;28.72;100.00;99671.06;6174341;23;45285;-92
2022/06/21 09:54:58;;;;;;;;;15.00;15.00;;;;;28.94;100.00;99695.19;6174865;23;45477;-91
2022/06/21 09:57:33;;;;;;;;;16.67;16.00;;;;;29.17;100.00;99690.50;6181783;23;46184;-91
2022/06/21 10:00:11;;;;;;;;;13.67;13.67;;;;;29.43;100.00;99715.34;6151050;23;45389;-91
2022/06/21 10:02:49;;;;;;;;;12.00;11.00;;;;;29.80;100.00;99705.44;6174884;23;45351;-92
2022/06/21 10:05:24;;;;;;;;;16.00;14.00;;;;;30.46;100.00;99705.63;6172152;23;45332;-91
2022/06/21 10:08:12;;;;;;;;;14.00;13.00;;;;;31.28;100.00;99717.34;6174149;23;46312;-92
2022/06/21 10:10:49;;;;;;;;;12.00;12.00;;;;;32.40;100.00;99712.47;6175391;23;45519;-92
2022/06/21 10:13:16;;;;;;;;;15.33;15.33;;;;;33.08;100.00;99766.16;6176806;23;45228;-92
2022/06/21 10:16:17;;;;;;;;;13.33;13.33;;;;;33.89;100.00;99854.31;6178265;23;45383;-96
2022/06/21 10:19:04;;;;;;;;;19.00;19.00;;;;;35.24;100.00;100390.44;6186047;23;45229;-96
2022/06/21 10:21:29;;;;;;;;;15.00;14.67;;;;;37.28;96.32;100567.19;6188755;23;46145;-96
2022/06/21 10:24:19;;;;;;;;;15.00;15.00;;;;;39.11;95.73;100621.41;6183967;23;45312;-95
2022/06/21 10:27:22;;;;;;;;;12.67;12.33;;;;;40.61;90.92;100692.81;6156504;23;45560;-96
2022/06/21 10:30:06;;;;;;;;;17.33;15.00;;;;;42.28;86.24;100757.47;6182281;23;46326;-95
2022/06/21 10:32:49;;;;;;;;;11.67;10.00;;;;;43.78;82.90;100780.56;6180413;23;45345;-90
2022/06/21 10:35:41;;;;;;;;;14.33;13.33;;;;;45.43;77.82;100808.66;6174169;23;45400;-88
2022/06/21 10:38:12;;;;;;;;;15.33;13.33;;;;;46.54;73.80;100821.97;6172300;23;45443;-86
2022/06/21 10:41:09;;;;;;;;;12.00;11.00;;;;;47.77;69.96;100833.63;6176699;23;45380;-87
2022/06/21 10:44:02;;;;;;;;;11.00;11.00;;;;;48.86;66.48;100848.03;6081128;23;45564;-87
2022/06/21 10:46:33;;;;;;;;;12.67;11.67;;;;;49.66;63.03;100834.06;6083441;23;45379;-86
2022/06/21 10:49:39;;;;;;;;;13.67;11.67;;;;;50.46;60.59;100841.03;6060816;23;45337;-86
2022/06/21 10:52:07;;;;;;;;;11.67;10.33;;;;;51.16;59.47;100853.66;6085779;23;45694;-87
2022/06/21 10:54:42;;;;;;;;;11.33;11.33;;;;;51.77;56.43;100850.50;6060228;23;45828;-87
2022/06/21 10:57:28;;;;;;;;;11.67;11.00;;;;;52.36;55.35;100859.50;6059543;23;45443;-86
2022/06/21 11:03:13;;;;;;;;;10.00;10.00;;;;;53.45;52.36;100859.81;6086238;23;45731;-88
2022/06/21 11:05:39;;;;;;;;;11.67;10.33;;;;;53.93;51.59;100848.56;6060440;23;45230;-87
2022/06/21 11:08:49;;;;;;;;;10.33;10.33;;;;;54.46;49.88;100838.22;6085603;23;45340;-90
2022/06/21 11:11:43;;;;;;;;;9.00;8.67;;;;;54.89;48.67;100846.19;6055987;23;45937;-87
2022/06/21 11:14:28;;;;;;;;;11.33;10.33;;;;;55.24;47.13;100833.63;6084460;23;45978;-86
2022/06/21 11:17:23;;;;;;;;;9.00;8.67;;;;;55.54;46.56;100838.59;6084154;23;45864;-87
2022/06/21 11:20:11;;;;;;;;;10.00;10.00;;;;;55.91;45.01;100839.72;6106492;23;45947;-89
2022/06/21 11:22:42;;;;;;;;;10.00;7.00;;;;;56.21;44.91;100853.03;6177279;23;45461;-87
2022/06/21 11:25:16;;;;;;;;;9.33;9.33;;;;;56.39;43.42;100840.03;6175108;23;45477;-89
2022/06/21 11:27:51;;;;;;;;;8.67;8.67;;;;;56.60;43.79;100837.84;6176808;23;45398;-88
2022/06/21 11:30:49;;;;;;;;;8.67;7.67;;;;;57.00;42.90;100850.44;6175779;23;45350;-88
2022/06/21 11:33:32;;;;;;;;;8.67;6.67;;;;;57.44;42.68;100843.66;6151599;23;45628;-87
2022/06/21 11:36:00;;;;;;;;;9.33;9.00;;;;;57.84;42.48;100846.81;6150911;23;46469;-87
2022/06/21 11:38:35;;;;;;;;;8.00;8.00;;;;;58.15;41.81;100835.34;6174678;23;45408;-87
2022/06/21 11:44:24;;;;;;;;;7.67;7.33;;;;;58.91;40.58;100839.09;6177150;23;45515;-86
2022/06/21 11:47:09;;;;;;;;;8.00;8.00;;;;;59.01;39.07;100837.56;6177813;23;47084;-86
2022/06/21 11:49:53;;;;;;;;;5.00;5.00;;;;;59.07;38.21;100835.69;6176233;23;45437;-87
2022/06/21 11:52:39;;;;;;;;;9.00;9.00;;;;;59.22;37.20;100835.97;6172732;23;45322;-87
2022/06/21 11:55:17;;;;;;;;;8.00;8.00;;;;;59.34;38.09;100830.19;6177637;23;45437;-87
2022/06/21 11:57:55;;;;;;;;;7.33;7.33;;;;;59.45;37.37;100817.09;6174245;23;46095;-87
2022/06/21 12:01:01;;;;;;;;;9.33;8.00;;;;;59.64;37.68;100833.75;6174934;23;45453;-87
2022/06/21 12:03:43;;;;;;;;;10.33;10.00;;;;;59.96;36.84;100831.34;6175562;23;45658;-87
2022/06/21 12:06:29;;;;;;;;;8.67;8.67;;;;;60.12;36.22;100824.78;6177764;23;45368;-87
2022/06/21 12:09:08;;;;;;;;;10.00;8.33;;;;;60.39;35.52;100831.59;6175977;23;45375;-87
2022/06/21 12:11:51;;;;;;;;;12.00;8.67;;;;;60.74;35.87;100834.22;6175817;23;45687;-87
2022/06/21 12:14:50;;;;;;;;;7.00;7.00;;;;;61.18;36.17;100829.47;6177173;23;45284;-88
2022/06/21 12:17:25;;;;;;;;;7.00;7.00;;;;;61.66;35.98;100831.50;6161201;23;45456;-87
2022/06/21 12:19:59;;;;;;;;;6.33;6.33;;;;;62.02;35.45;100827.97;6150918;23;48326;-88
2022/06/21 12:22:30;;;;;;;;;6.67;6.67;;;;;62.29;34.55;100821.25;6174184;23;46177;-88
2022/06/21 12:24:56;;;;;;;;;8.33;7.33;;;;;62.61;35.45;100812.81;6175893;23;45362;-88
2022/06/21 12:27:22;;;;;;;;;0.50;0.50;;;;;61.90;34.25;100823.41;6146176;23;45371;-87
2022/06/21 12:29:48;;;;;;;;;8.67;7.67;;;;;61.44;34.15;100810.66;6146800;23;46475;-88
2022/06/21 12:32:21;;;;;;;;;7.00;7.00;;;;;61.78;34.75;100803.72;6169731;23;45368;-87
2022/06/21 12:35:01;;;;;;;;;8.50;8.00;;;;;62.25;34.03;100811.59;6169557;23;45387;-87
2022/06/21 12:37:42;;;;;;;;;8.00;8.00;;;;;61.87;33.80;100795.56;6146782;23;45269;-88
2022/06/21 12:40:20;;;;;;;;;9.00;8.67;;;;;60.83;33.67;100787.22;6170866;23;47433;-88
2022/06/21 12:43:13;;;;;;;;;6.33;6.33;;;;;61.42;33.93;100780.88;6148184;23;45323;-88
2022/06/21 12:45:58;;;;;;;;;6.00;6.00;;;;;62.41;34.01;100789.72;6169368;23;45251;-89
2022/06/21 12:48:48;;;;;;;;;7.67;7.67;;;;;63.18;32.67;100781.47;6171423;23;45336;-90
2022/06/21 12:51:29;;;;;;;;;6.00;6.00;;;;;64.11;32.47;100787.94;6165269;23;47402;-90
2022/06/21 12:54:22;;;;;;;;;7.00;7.00;;;;;65.03;31.77;100790.63;6170449;23;45954;-90
2022/06/21 12:57:25;;;;;;;;;8.25;7.25;;;;;65.82;31.65;100785.72;6169647;23;45386;-90
2022/06/21 13:00:23;;;;;;;;;7.00;6.00;;;;;66.57;31.24;100794.88;6147352;23;45489;-88
2022/06/21 13:03:25;;;;;;;;;7.00;6.00;;;;;64.50;30.44;100793.13;6091839;23;45317;-87
2022/06/21 13:06:18;;;;;;;;;7.50;7.50;;;;;60.46;31.00;100774.72;6059124;23;45947;-88
2022/06/21 13:09:01;;;;;;;;;6.00;6.00;;;;;57.20;32.66;100772.25;6084593;23;45439;-88
2022/06/21 13:11:32;;;;;;;;;10.00;7.00;;;;;55.22;33.64;100748.66;6084204;23;45288;-88
2022/06/21 13:14:30;;;;;;;;;9.33;8.00;;;;;53.82;34.81;100749.06;6059260;23;47198;-88
2022/06/21 13:17:04;;;;;;;;;6.67;6.67;;;;;55.52;35.95;100752.72;6085216;23;45495;-88
2022/06/21 13:19:42;;;;;;;;;7.67;6.67;;;;;57.65;34.68;100748.25;6085487;23;45382;-88
2022/06/21 13:22:13;;;;;;;;;6.00;6.00;;;;;59.29;34.64;100750.91;6058292;23;45501;-88
2022/06/21 13:24:41;;;;;;;;;8.33;8.33;;;;;59.47;33.01;100751.75;6059847;23;48304;-89
2022/06/21 13:27:16;;;;;;;;;8.33;8.33;;;;;57.33;33.36;100740.16;6060046;23;45498;-88
2022/06/21 13:29:54;;;;;;;;;6.33;6.33;;;;;54.84;34.18;100726.94;6058917;23;45333;-88
2022/06/21 13:32:27;;;;;;;;;7.00;7.00;;;;;53.89;35.28;100729.41;6060088;23;45568;-88
2022/06/21 13:34:58;;;;;;;;;8.33;8.33;;;;;53.31;36.49;100730.00;6083499;23;46482;-88
2022/06/21 13:37:35;;;;;;;;;9.00;8.00;;;;;53.06;35.46;100744.66;6084243;23;45398;-87
2022/06/21 13:40:22;;;;;;;;;6.00;6.00;;;;;53.57;36.48;100735.78;6117626;23;45387;-88
2022/06/21 13:42:55;;;;;;;;;9.00;8.00;;;;;54.95;36.24;100732.94;6147740;23;45315;-90
2022/06/21 13:45:53;;;;;;;;;9.67;7.67;;;;;56.64;35.75;100736.78;6169704;23;47348;-89
2022/06/21 13:48:33;;;;;;;;;7.33;6.67;;;;;58.05;33.93;100729.59;6169050;23;45257;-90
2022/06/21 13:51:14;;;;;;;;;5.67;5.00;;;;;58.88;33.91;100722.88;6146506;23;45327;-89
2022/06/21 13:53:55;;;;;;;;;6.33;6.00;;;;;59.79;33.50;100722.75;6146972;23;45271;-89
2022/06/21 13:56:38;;;;;;;;;6.00;6.00;;;;;60.62;34.07;100723.88;6146422;23;45578;-88
2022/06/21 13:59:14;;;;;;;;;7.75;7.50;;;;;61.39;32.73;100721.84;6168062;23;45958;-88
2022/06/21 14:01:46;;;;;;;;;7.67;7.33;;;;;61.79;32.39;100717.47;6169089;23;45262;-88
2022/06/21 14:04:24;;;;;;;;;5.75;5.75;;;;;62.08;31.60;100715.25;6147669;23;45457;-91
2022/06/21 14:06:49;;;;;;;;;6.00;6.00;;;;;62.24;31.50;100714.19;6170714;23;48316;-90
2022/06/21 14:09:30;;;;;;;;;6.50;6.50;;;;;62.02;31.71;100711.56;6171118;23;45576;-90
2022/06/21 14:12:20;;;;;;;;;6.75;6.75;;;;;62.07;31.47;100707.88;6146049;23;45836;-90
2022/06/21 14:15:20;;;;;;;;;6.00;6.00;;;;;61.75;31.53;100699.28;6169245;23;45478;-91
2022/06/21 14:18:10;;;;;;;;;6.25;6.00;;;;;59.90;31.59;100708.72;6080250;23;47188;-88
2022/06/21 14:21:07;;;;;;;;;7.50;7.50;;;;;57.79;31.92;100695.19;6084857;23;45488;-89
2022/06/21 14:24:06;;;;;;;;;6.00;6.00;;;;;56.21;32.92;100697.34;6061085;23;45371;-88
2022/06/21 14:27:15;;;;;;;;;7.33;6.33;;;;;55.98;33.75;100702.63;6059679;23;45470;-88
2022/06/21 14:30:02;;;;;;;;;7.00;7.00;;;;;56.50;33.20;100691.91;6085971;23;46091;-88
2022/06/21 14:32:41;;;;;;;;;7.67;6.67;;;;;57.04;33.88;100684.50;6086647;23;45696;-88